createdAt,value
2018-12-15T00:00:04.398Z,101419.72
2018-12-15T00:02:48.992Z,101425.45
2018-12-15T00:05:32.036Z,101430.70
2018-12-15T00:08:18.090Z,101418.41
2018-12-15T00:11:01.253Z,101430.07
2018-12-15T00:13:44.840Z,101429.67
2018-12-15T00:16:28.273Z,101437.19
2018-12-15T00:19:10.984Z,101441.01
2018-12-15T00:21:54.269Z,101438.58
2018-12-15T00:24:38.620Z,101444.00
2018-12-15T00:27:23.432Z,101437.59
2018-12-15T00:30:07.040Z,101444.35
2018-12-15T00:32:50.311Z,101440.81
2018-12-15T00:35:33.010Z,101438.58
2018-12-15T00:38:16.404Z,101435.08
2018-12-15T00:40:59.837Z,101435.76
2018-12-15T00:43:43.681Z,101443.32
2018-12-15T00:46:27.394Z,101448.56
2018-12-15T00:49:10.137Z,101445.47
2018-12-15T00:51:55.077Z,101453.39
2018-12-15T00:54:39.521Z,101458.36
2018-12-15T00:57:23.034Z,101463.37
2018-12-15T01:00:06.553Z,101466.39
2018-12-15T01:02:53.277Z,101462.70
2018-12-15T01:05:36.082Z,101469.38
2018-12-15T01:08:21.673Z,101469.33
2018-12-15T01:11:06.222Z,101475.11
2018-12-15T01:13:49.569Z,101474.23
2018-12-15T01:16:32.584Z,101480.95
2018-12-15T01:19:15.290Z,101477.97
2018-12-15T01:21:57.875Z,101487.23
2018-12-15T01:24:41.327Z,101489.83
2018-12-15T01:27:24.168Z,101498.34
2018-12-15T01:30:08.226Z,101498.94
2018-12-15T01:32:51.409Z,101499.62
2018-12-15T01:35:35.163Z,101502.04
2018-12-15T01:38:21.509Z,101502.92
2018-12-15T01:41:04.756Z,101495.32
2018-12-15T01:43:54.100Z,101496.95
2018-12-15T01:46:37.880Z,101497.75
2018-12-15T01:49:20.491Z,101495.67
2018-12-15T01:52:03.533Z,101495.95
2018-12-15T01:54:46.870Z,101498.19
2018-12-15T01:57:29.138Z,101500.34
2018-12-15T02:00:13.713Z,101503.36
2018-12-15T02:02:56.987Z,101498.03
2018-12-15T02:05:40.704Z,101497.55
2018-12-15T02:08:24.353Z,101504.39
2018-12-15T02:11:07.339Z,101500.97
2018-12-15T02:13:49.510Z,101497.47
2018-12-15T02:16:32.332Z,101495.88
2018-12-15T02:19:14.578Z,101497.55
2018-12-15T02:21:57.373Z,101496.20
2018-12-15T02:24:40.909Z,101493.57
2018-12-15T02:27:24.052Z,101489.27
2018-12-15T02:30:07.239Z,101497.39
2018-12-15T02:32:50.403Z,101501.77
2018-12-15T02:35:33.929Z,101505.67
2018-12-15T02:38:17.265Z,101504.16
2018-12-15T02:41:00.836Z,101513.31
2018-12-15T02:43:43.126Z,101512.03
2018-12-15T02:46:25.621Z,101506.14
2018-12-15T02:49:09.673Z,101499.62
2018-12-15T02:51:52.771Z,101505.67
2018-12-15T02:54:36.512Z,101504.80
2018-12-15T02:57:21.313Z,101502.41
2018-12-15T03:00:04.910Z,101499.54
2018-12-15T03:02:48.380Z,101503.92
2018-12-15T03:05:36.417Z,101500.89
2018-12-15T03:08:19.110Z,101494.53
2018-12-15T03:11:02.797Z,101501.61
2018-12-15T03:13:46.519Z,101502.80
2018-12-15T03:16:30.755Z,101502.64
2018-12-15T03:19:14.500Z,101497.95
2018-12-15T03:21:58.291Z,101502.72
2018-12-15T03:24:41.087Z,101501.92
2018-12-15T03:27:23.897Z,101500.02
2018-12-15T03:30:07.421Z,101503.05
2018-12-15T03:32:50.061Z,101501.61
2018-12-15T03:35:32.839Z,101501.84
2018-12-15T03:38:15.928Z,101494.53
2018-12-15T03:40:58.610Z,101494.05
2018-12-15T03:43:42.053Z,101490.66
2018-12-15T03:46:25.078Z,101493.33
2018-12-15T03:49:08.039Z,101496.28
2018-12-15T03:51:51.476Z,101491.94
2018-12-15T03:54:34.456Z,101496.83
2018-12-15T03:57:18.086Z,101500.09
2018-12-15T04:00:03.409Z,101498.34
2018-12-15T04:02:46.103Z,101487.56
2018-12-15T04:05:29.446Z,101496.59
2018-12-15T04:08:12.159Z,101495.32
2018-12-15T04:10:55.725Z,101496.28
2018-12-15T04:13:39.060Z,101488.03
2018-12-15T04:16:23.237Z,101487.28
2018-12-15T04:19:06.246Z,101495.88
2018-12-15T04:21:49.353Z,101488.16
2018-12-15T04:24:33.188Z,101486.02
2018-12-15T04:27:16.781Z,101481.67
2018-12-15T04:29:59.294Z,101479.20
2018-12-15T04:32:45.138Z,101475.14
2018-12-15T04:35:27.277Z,101475.11
2018-12-15T04:38:10.112Z,101479.72
2018-12-15T04:40:53.381Z,101479.24
2018-12-15T04:43:37.006Z,101473.44
2018-12-15T04:46:19.371Z,101474.51
2018-12-15T04:49:03.141Z,101469.81
2018-12-15T04:51:45.595Z,101482.94
2018-12-15T04:54:28.925Z,101480.72
2018-12-15T04:57:11.388Z,101477.69
2018-12-15T04:59:55.337Z,101480.23
2018-12-15T05:02:43.648Z,101484.22
2018-12-15T05:05:22.279Z,101483.19
2018-12-15T05:08:05.589Z,101473.39
2018-12-15T05:10:48.596Z,101465.75
2018-12-15T05:13:30.992Z,101465.44
2018-12-15T05:16:15.754Z,101470.45
2018-12-15T05:18:58.110Z,101478.17
2018-12-15T05:21:41.497Z,101475.55
2018-12-15T05:24:24.302Z,101465.24
2018-12-15T05:27:09.323Z,101470.34
2018-12-15T05:29:53.382Z,101467.03
2018-12-15T05:32:37.193Z,101474.27
2018-12-15T05:35:21.345Z,101464.24
2018-12-15T05:38:03.913Z,101472.52
2018-12-15T05:40:48.142Z,101478.48
2018-12-15T05:43:31.881Z,101480.55
2018-12-15T05:46:14.725Z,101469.41
2018-12-15T05:48:57.879Z,101478.41
2018-12-15T05:51:42.140Z,101475.46
2018-12-15T05:54:25.937Z,101479.59
2018-12-15T05:57:08.771Z,101476.09
2018-12-15T05:59:52.101Z,101475.78
2018-12-15T06:02:36.973Z,101472.76
2018-12-15T06:05:21.100Z,101476.58
2018-12-15T06:08:04.249Z,101478.80
2018-12-15T06:10:47.516Z,101470.21
2018-12-15T06:13:31.337Z,101475.06
2018-12-15T06:16:15.294Z,101474.11
2018-12-15T06:18:58.913Z,101477.21
2018-12-15T06:21:43.268Z,101477.05
2018-12-15T06:24:27.076Z,101482.22
2018-12-15T06:27:09.864Z,101480.16
2018-12-15T06:29:52.869Z,101484.21
2018-12-15T06:32:35.984Z,101484.30
2018-12-15T06:35:19.809Z,101477.45
2018-12-15T06:38:03.751Z,101472.67
2018-12-15T06:40:46.057Z,101469.12
2018-12-15T06:43:30.001Z,101478.59
2018-12-15T06:46:12.941Z,101475.57
2018-12-15T06:48:57.273Z,101473.91
2018-12-15T06:51:43.876Z,101470.87
2018-12-15T06:54:30.189Z,101471.27
2018-12-15T06:57:14.837Z,101464.27
2018-12-15T06:59:58.479Z,101469.41
2018-12-15T07:02:43.138Z,101468.30
2018-12-15T07:05:26.705Z,101465.91
2018-12-15T07:08:10.191Z,101468.86
2018-12-15T07:10:55.627Z,101475.38
2018-12-15T07:13:39.845Z,101474.11
2018-12-15T07:16:26.433Z,101474.03
2018-12-15T07:19:09.122Z,101474.11
2018-12-15T07:21:58.512Z,101471.16
2018-12-15T07:24:41.330Z,101481.83
2018-12-15T07:27:26.471Z,101481.34
2018-12-15T07:30:09.732Z,101481.91
2018-12-15T07:32:53.984Z,101482.94
2018-12-15T07:35:37.237Z,101477.72
2018-12-15T07:38:21.294Z,101483.29
2018-12-15T07:41:04.181Z,101487.23
2018-12-15T07:43:47.792Z,101493.68
2018-12-15T07:46:31.878Z,101492.33
2018-12-15T07:49:14.817Z,101498.05
2018-12-15T07:51:58.650Z,101495.59
2018-12-15T07:54:42.285Z,101494.80
2018-12-15T07:57:28.102Z,101483.42
2018-12-15T08:00:11.514Z,101483.50
2018-12-15T08:02:55.843Z,101487.87
2018-12-15T08:05:39.056Z,101493.12
2018-12-15T08:08:25.535Z,101495.28
2018-12-15T08:11:14.497Z,101493.61
2018-12-15T08:14:06.961Z,101494.80
2018-12-15T08:16:50.956Z,101489.39
2018-12-15T08:19:34.725Z,101502.03
2018-12-15T08:22:25.950Z,101500.45
2018-12-15T08:25:06.256Z,101494.87
2018-12-15T08:27:49.832Z,101502.52
2018-12-15T08:30:33.109Z,101496.62
2018-12-15T08:33:15.593Z,101502.67
2018-12-15T08:35:59.312Z,101499.66
2018-12-15T08:38:43.049Z,101497.50
2018-12-15T08:41:27.540Z,101500.53
2018-12-15T08:44:13.145Z,101500.84
2018-12-15T08:46:56.636Z,101505.45
2018-12-15T08:49:39.833Z,101511.42
2018-12-15T08:52:23.792Z,101507.29
2018-12-15T08:55:08.735Z,101503.63
2018-12-15T08:57:52.246Z,101501.00
2018-12-15T09:00:36.981Z,101502.67
2018-12-15T09:03:27.164Z,101507.93
2018-12-15T09:06:10.368Z,101507.45
2018-12-15T09:08:53.151Z,101504.19
2018-12-15T09:11:37.933Z,101513.98
2018-12-15T09:14:21.032Z,101513.70
2018-12-15T09:17:07.075Z,101509.01
2018-12-15T09:19:52.157Z,101515.62
2018-12-15T09:22:36.284Z,101520.47
2018-12-15T09:25:21.861Z,101519.95
2018-12-15T09:28:06.162Z,101520.16
2018-12-15T09:30:50.873Z,101530.81
2018-12-15T09:33:34.181Z,101524.84
2018-12-15T09:36:18.470Z,101531.14
2018-12-15T09:39:05.025Z,101530.19
2018-12-15T09:41:49.689Z,101528.59
2018-12-15T09:44:35.321Z,101529.06
2018-12-15T09:47:20.701Z,101519.28
2018-12-15T09:50:05.538Z,101523.17
2018-12-15T09:52:52.260Z,101522.22
2018-12-15T09:55:40.536Z,101521.91
2018-12-15T09:58:25.305Z,101516.97
2018-12-15T10:01:10.189Z,101517.31
2018-12-15T10:03:55.487Z,101514.66
2018-12-15T10:06:40.522Z,101515.30
2018-12-15T10:09:25.579Z,101513.55
2018-12-15T10:12:11.496Z,101511.72
2018-12-15T10:14:56.227Z,101510.60
2018-12-15T10:17:43.091Z,101505.43
2018-12-15T10:20:33.034Z,101508.13
2018-12-15T10:23:16.641Z,101504.08
2018-12-15T10:26:01.190Z,101505.51
2018-12-15T10:28:44.539Z,101500.97
2018-12-15T10:31:32.736Z,101498.98
2018-12-15T10:34:16.485Z,101497.55
2018-12-15T10:37:00.120Z,101482.75
2018-12-15T10:39:44.369Z,101472.41
2018-12-15T10:42:28.828Z,101478.93
2018-12-15T10:45:11.907Z,101472.72
2018-12-15T10:47:56.142Z,101467.78
2018-12-15T10:50:41.043Z,101468.91
2018-12-15T10:53:24.965Z,101463.97
2018-12-15T10:56:09.120Z,101457.69
2018-12-15T10:58:54.758Z,101457.28
2018-12-15T11:04:29.860Z,101448.13
2018-12-15T11:07:15.350Z,101446.14
2018-12-15T11:09:58.342Z,101434.20
2018-12-15T11:12:41.663Z,101439.38
2018-12-15T11:15:26.209Z,101440.02
2018-12-15T11:18:09.609Z,101430.55
2018-12-15T11:20:52.452Z,101428.88
2018-12-15T11:23:37.116Z,101432.70
2018-12-15T11:26:20.876Z,101429.43
2018-12-15T11:29:05.639Z,101425.53
2018-12-15T11:31:50.158Z,101412.72
2018-12-15T11:34:34.808Z,101423.31
2018-12-15T11:37:17.967Z,101424.18
2018-12-15T11:40:01.713Z,101410.01
2018-12-15T11:42:45.369Z,101401.66
2018-12-15T11:45:30.421Z,101400.83
2018-12-15T11:48:13.399Z,101403.88
2018-12-15T11:50:58.041Z,101397.29
2018-12-15T11:53:44.693Z,101394.94
2018-12-15T11:56:30.349Z,101393.19
2018-12-15T11:59:15.031Z,101392.75
2018-12-15T12:01:57.483Z,101391.14
2018-12-15T12:04:42.867Z,101390.08
2018-12-15T12:07:25.736Z,101388.73
2018-12-15T12:10:08.705Z,101383.27
2018-12-15T12:12:51.958Z,101370.62
2018-12-15T12:15:36.788Z,101367.56
2018-12-15T12:18:20.209Z,101365.89
2018-12-15T12:21:05.346Z,101363.91
2018-12-15T12:23:48.256Z,101370.20
2018-12-15T12:26:32.987Z,101372.04
2018-12-15T12:29:17.049Z,101360.49
2018-12-15T12:32:01.712Z,101358.77
2018-12-15T12:34:45.179Z,101353.08
2018-12-15T12:37:29.866Z,101353.01
2018-12-15T12:40:13.169Z,101356.93
2018-12-15T12:43:15.857Z,101349.94
2018-12-15T12:45:59.592Z,101352.63
2018-12-15T12:48:42.674Z,101344.50
2018-12-15T12:51:25.828Z,101343.02
2018-12-15T12:54:22.988Z,101338.14
2018-12-15T12:57:07.625Z,101330.66
2018-12-15T12:59:52.716Z,101337.41
2018-12-15T13:02:40.057Z,101332.44
2018-12-15T13:05:25.634Z,101331.23
2018-12-15T13:08:08.986Z,101317.53
2018-12-15T13:10:52.236Z,101315.69
2018-12-15T13:13:36.399Z,101318.71
2018-12-15T13:16:19.753Z,101322.30
2018-12-15T13:19:05.309Z,101315.53
2018-12-15T13:21:48.328Z,101318.78
2018-12-15T13:24:31.321Z,101322.53
2018-12-15T13:27:15.535Z,101313.14
2018-12-15T13:30:01.459Z,101317.69
2018-12-15T13:32:47.864Z,101316.89
2018-12-15T13:35:36.698Z,101314.03
2018-12-15T13:38:22.617Z,101309.97
2018-12-15T13:41:06.636Z,101309.50
2018-12-15T13:43:51.469Z,101308.59
2018-12-15T13:46:36.029Z,101306.45
2018-12-15T13:49:21.985Z,101305.11
2018-12-15T13:52:06.489Z,101304.73
2018-12-15T13:54:50.567Z,101294.07
2018-12-15T13:57:35.052Z,101289.70
2018-12-15T14:00:19.851Z,101287.63
2018-12-15T14:03:06.413Z,101288.28
2018-12-15T14:05:50.123Z,101285.09
2018-12-15T14:08:34.313Z,101276.10
2018-12-15T14:11:18.377Z,101277.03
2018-12-15T14:14:05.201Z,101266.84
2018-12-15T14:16:49.022Z,101275.08
2018-12-15T14:19:34.653Z,101263.63
2018-12-15T14:22:17.962Z,101257.94
2018-12-15T14:25:02.735Z,101253.25
2018-12-15T14:27:47.778Z,101256.29
2018-12-15T14:30:34.026Z,101264.72
2018-12-15T14:33:18.533Z,101264.09
2018-12-15T14:36:02.581Z,101264.72
2018-12-15T14:38:45.410Z,101261.63
2018-12-15T14:41:33.428Z,101253.92
2018-12-15T14:44:18.190Z,101246.28
2018-12-15T14:47:05.300Z,101243.81
2018-12-15T14:49:49.544Z,101238.65
2018-12-15T14:52:33.888Z,101241.98
2018-12-15T14:55:23.348Z,101232.46
2018-12-15T14:58:08.653Z,101233.80
2018-12-15T15:00:57.261Z,101234.09
2018-12-15T15:03:40.711Z,101228.05
2018-12-15T15:06:25.921Z,101223.44
2018-12-15T15:09:10.743Z,101223.04
2018-12-15T15:11:56.116Z,101222.02
2018-12-15T15:14:41.958Z,101214.85
2018-12-15T15:17:28.440Z,101207.87
2018-12-15T15:20:12.055Z,101200.48
2018-12-15T15:22:55.229Z,101186.24
2018-12-15T15:25:38.336Z,101185.14
2018-12-15T15:28:23.475Z,101181.10
2018-12-15T15:31:09.358Z,101178.16
2018-12-15T15:33:53.416Z,101170.41
2018-12-15T15:36:42.069Z,101160.16
2018-12-15T15:39:25.933Z,101159.29
2018-12-15T15:42:09.972Z,101164.38
2018-12-15T15:44:59.758Z,101147.69
2018-12-15T15:47:46.493Z,101150.56
2018-12-15T15:50:36.306Z,101140.39
2018-12-15T15:53:15.475Z,101136.42
2018-12-15T15:55:59.926Z,101137.14
2018-12-15T15:58:44.733Z,101132.45
2018-12-15T16:01:28.724Z,101135.72
2018-12-15T16:04:12.783Z,101128.50
2018-12-15T16:06:56.926Z,101122.14
2018-12-15T16:09:45.017Z,101119.05
2018-12-15T16:12:28.010Z,101115.19
2018-12-15T16:15:11.923Z,101112.97
2018-12-15T16:17:56.778Z,101113.84
2018-12-15T16:20:43.409Z,101109.16
2018-12-15T16:23:27.664Z,101097.64
2018-12-15T16:26:13.690Z,101094.40
2018-12-15T16:28:58.606Z,101092.48
2018-12-15T16:31:48.885Z,101095.20
2018-12-15T16:34:37.130Z,101075.73
2018-12-15T16:37:22.832Z,101076.45
2018-12-15T16:40:09.157Z,101074.55
2018-12-15T16:42:55.196Z,101073.28
2018-12-15T16:45:39.704Z,101069.95
2018-12-15T16:48:23.237Z,101064.79
2018-12-15T16:51:06.093Z,101062.92
2018-12-15T16:53:49.026Z,101072.47
2018-12-15T16:56:33.391Z,101069.77
2018-12-15T16:59:23.871Z,101062.00
2018-12-15T17:02:10.111Z,101058.28
2018-12-15T17:04:55.280Z,101062.77
2018-12-15T17:07:44.134Z,101061.83
2018-12-15T17:10:27.502Z,101054.60
2018-12-15T17:13:10.998Z,101047.30
2018-12-15T17:15:54.562Z,101039.92
2018-12-15T17:18:38.239Z,101039.28
2018-12-15T17:21:23.057Z,101033.57
2018-12-15T17:24:06.366Z,101020.72
2018-12-15T17:26:50.946Z,101012.47
2018-12-15T17:29:33.972Z,101007.86
2018-12-15T17:34:49.753Z,100994.74
2018-12-15T17:37:34.004Z,101002.20
2018-12-15T17:40:18.961Z,100993.96
2018-12-15T17:43:03.268Z,100987.22
2018-12-15T17:45:46.475Z,100976.48
2018-12-15T17:48:30.485Z,100979.34
2018-12-15T17:51:13.495Z,100980.22
2018-12-15T17:53:57.824Z,100984.35
2018-12-15T17:56:42.184Z,100974.72
2018-12-15T17:59:25.925Z,100965.83
2018-12-15T18:02:11.270Z,100972.34
2018-12-15T18:04:54.625Z,100972.50
2018-12-15T18:07:37.433Z,100962.20
2018-12-15T18:10:21.024Z,100950.89
2018-12-15T18:13:07.807Z,100943.01
2018-12-15T18:15:52.749Z,100941.94
2018-12-15T18:18:39.430Z,100940.03
2018-12-15T18:21:24.445Z,100937.09
2018-12-15T18:24:07.672Z,100923.93
2018-12-15T18:26:52.457Z,100909.59
2018-12-15T18:29:37.501Z,100912.29
2018-12-15T18:32:22.954Z,100898.89
2018-12-15T18:35:06.056Z,100890.89
2018-12-15T18:37:49.146Z,100890.64
2018-12-15T18:40:45.788Z,100893.58
2018-12-15T18:43:29.122Z,100891.76
2018-12-15T18:46:12.013Z,100896.44
2018-12-15T18:48:56.401Z,100893.11
2018-12-15T18:51:40.532Z,100898.80
2018-12-15T18:54:25.178Z,100892.98
2018-12-15T18:57:09.284Z,100891.56
2018-12-15T18:59:52.409Z,100887.20
2018-12-15T19:02:37.645Z,100887.55
2018-12-15T19:05:22.496Z,100891.05
2018-12-15T19:08:06.944Z,100877.24
2018-12-15T19:10:51.285Z,100877.08
2018-12-15T19:13:34.817Z,100871.13
2018-12-15T19:16:17.464Z,100860.92
2018-12-15T19:19:01.280Z,100854.50
2018-12-15T19:21:45.785Z,100854.94
2018-12-15T19:24:29.643Z,100846.49
2018-12-15T19:27:13.497Z,100839.33
2018-12-15T19:29:58.028Z,100837.81
2018-12-15T19:32:41.678Z,100832.52
2018-12-15T19:35:25.809Z,100828.08
2018-12-15T19:38:10.552Z,100823.33
2018-12-15T19:40:56.844Z,100818.09
2018-12-15T19:43:40.216Z,100807.01
2018-12-15T19:46:27.728Z,100797.30
2018-12-15T19:49:13.534Z,100783.59
2018-12-15T19:51:57.605Z,100778.59
2018-12-15T19:54:41.833Z,100771.23
2018-12-15T19:57:25.882Z,100780.19
2018-12-15T20:00:10.710Z,100776.16
2018-12-15T20:02:54.428Z,100774.89
2018-12-15T20:05:38.239Z,100771.94
2018-12-15T20:08:23.635Z,100774.80
2018-12-15T20:11:06.370Z,100774.56
2018-12-15T20:13:50.845Z,100759.99
2018-12-15T20:16:36.568Z,100759.45
2018-12-15T20:19:20.125Z,100751.20
2018-12-15T20:22:03.901Z,100755.17
2018-12-15T20:24:50.466Z,100746.77
2018-12-15T20:27:33.416Z,100741.70
2018-12-15T20:30:17.998Z,100737.74
2018-12-15T20:33:05.339Z,100742.27
2018-12-15T20:35:49.817Z,100736.95
2018-12-15T20:38:33.483Z,100730.45
2018-12-15T20:41:22.695Z,100731.41
2018-12-15T20:44:05.274Z,100724.20
2018-12-15T20:46:49.301Z,100718.80
2018-12-15T20:49:34.965Z,100719.13
2018-12-15T20:52:18.605Z,100704.86
2018-12-15T20:55:03.532Z,100706.53
2018-12-15T20:57:46.992Z,100704.61
2018-12-15T21:00:30.593Z,100705.41
2018-12-15T21:03:14.894Z,100707.64
2018-12-15T21:05:59.040Z,100701.19
2018-12-15T21:08:41.486Z,100693.23
2018-12-15T21:11:25.544Z,100692.41
2018-12-15T21:14:09.328Z,100693.91
2018-12-15T21:16:52.765Z,100698.66
2018-12-15T21:19:35.860Z,100680.36
2018-12-15T21:26:03.809Z,100666.36
2018-12-15T21:28:48.639Z,100663.83
2018-12-15T21:31:32.268Z,100662.09
2018-12-15T21:34:17.717Z,100645.62
2018-12-15T21:37:03.403Z,100650.29
2018-12-15T21:39:45.713Z,100643.22
2018-12-15T21:42:31.747Z,100638.55
2018-12-15T21:45:15.478Z,100626.34
2018-12-15T21:48:00.466Z,100614.00
2018-12-15T21:50:45.801Z,100612.26
2018-12-15T21:53:29.965Z,100604.59
2018-12-15T21:56:14.981Z,100605.86
2018-12-15T21:58:59.120Z,100598.11
2018-12-15T22:01:42.357Z,100592.61
2018-12-15T22:04:27.571Z,100584.46
2018-12-15T22:07:10.463Z,100575.78
2018-12-15T22:09:55.138Z,100565.38
2018-12-15T22:12:39.106Z,100555.50
2018-12-15T22:15:24.322Z,100550.98
2018-12-15T22:18:08.776Z,100544.10
2018-12-15T22:20:54.995Z,100538.05
2018-12-15T22:23:38.692Z,100539.97
2018-12-15T22:26:22.542Z,100529.58
2018-12-15T22:29:06.701Z,100545.44
2018-12-15T22:31:50.269Z,100541.71
2018-12-15T22:34:32.853Z,100531.91
2018-12-15T22:37:17.007Z,100515.25
2018-12-15T22:39:59.452Z,100511.30
2018-12-15T22:42:47.565Z,100506.45
2018-12-15T22:45:29.907Z,100502.17
2018-12-15T22:48:12.601Z,100500.69
2018-12-15T22:50:55.252Z,100496.17
2018-12-15T22:53:39.434Z,100489.98
2018-12-15T22:56:26.257Z,100470.11
2018-12-15T22:59:10.900Z,100462.91
2018-12-15T23:01:54.096Z,100453.49
2018-12-15T23:04:37.042Z,100449.44
2018-12-15T23:07:19.643Z,100444.63
2018-12-15T23:10:02.932Z,100426.56
2018-12-15T23:12:47.876Z,100430.76
2018-12-15T23:15:32.983Z,100423.27
2018-12-15T23:18:16.420Z,100417.00
2018-12-15T23:21:00.409Z,100412.40
2018-12-15T23:23:44.889Z,100418.20
2018-12-15T23:26:28.085Z,100421.34
2018-12-15T23:29:12.116Z,100422.20
2018-12-15T23:31:54.884Z,100422.83
2018-12-15T23:34:39.302Z,100411.08
2018-12-15T23:37:23.449Z,100411.01
2018-12-15T23:40:07.361Z,100407.94
2018-12-15T23:42:50.724Z,100402.09
2018-12-15T23:45:34.029Z,100382.69
2018-12-15T23:48:44.427Z,100378.33
2018-12-15T23:51:29.119Z,100362.58
2018-12-15T23:54:15.167Z,100347.98
2018-12-15T23:57:00.363Z,100343.05
2018-12-15T23:59:48.740Z,100340.38
